createdAt,value
2023-09-11T00:01:37.181Z,23.00
2023-09-11T00:04:09.677Z,22.90
2023-09-11T00:06:39.513Z,22.90
2023-09-11T00:09:21.173Z,23.20
2023-09-11T00:11:54.140Z,22.70
2023-09-11T00:14:39.035Z,22.80
2023-09-11T00:17:22.594Z,22.80
2023-09-11T00:19:53.257Z,22.70
2023-09-11T00:22:27.527Z,22.70
2023-09-11T00:25:10.867Z,23.00
2023-09-11T00:28:08.013Z,22.90
2023-09-11T00:30:42.662Z,23.00
2023-09-11T00:33:48.057Z,22.90
2023-09-11T00:36:23.639Z,22.60
2023-09-11T00:38:56.667Z,22.60
2023-09-11T00:41:37.490Z,22.50
2023-09-11T00:44:07.913Z,22.90
2023-09-11T00:49:33.552Z,22.60
2023-09-11T00:52:23.271Z,22.40
2023-09-11T00:55:18.973Z,22.40
2023-09-11T00:57:53.389Z,22.10
2023-09-11T01:00:27.641Z,22.50
2023-09-11T01:03:03.976Z,22.80
2023-09-11T01:05:52.480Z,22.30
2023-09-11T01:08:25.399Z,22.20
2023-09-11T01:11:12.984Z,22.70
2023-09-11T01:14:06.397Z,22.20
2023-09-11T01:16:51.085Z,22.20
2023-09-11T01:19:51.770Z,22.10
2023-09-11T01:23:00.527Z,22.50
2023-09-11T01:26:12.319Z,22.10
2023-09-11T01:38:14.285Z,22.00
2023-09-11T01:40:56.432Z,22.10
2023-09-11T01:43:56.300Z,22.90
2023-09-11T01:46:42.079Z,22.40
2023-09-11T01:49:19.218Z,22.10
2023-09-11T01:52:12.568Z,22.90
2023-09-11T01:54:50.581Z,22.90
2023-09-11T01:57:30.711Z,21.90
2023-09-11T02:00:19.523Z,21.90
2023-09-11T02:03:09.790Z,20.60
2023-09-11T02:05:41.589Z,21.70
2023-09-11T02:08:16.518Z,21.80
2023-09-11T02:10:46.574Z,22.00
2023-09-11T02:13:19.085Z,21.80
2023-09-11T02:16:11.614Z,21.70
2023-09-11T02:18:43.734Z,22.10
2023-09-11T02:21:30.035Z,21.70
2023-09-11T02:24:14.234Z,22.70
2023-09-11T02:26:51.821Z,22.00
2023-09-11T02:29:23.038Z,21.70
2023-09-11T02:32:08.432Z,21.70
2023-09-11T02:34:57.230Z,21.60
2023-09-11T02:37:59.378Z,21.60
2023-09-11T02:40:46.270Z,21.90
2023-09-11T02:43:19.125Z,21.70
2023-09-11T02:46:15.685Z,21.90
2023-09-11T02:49:12.330Z,21.70
2023-09-11T02:51:55.650Z,21.70
2023-09-11T02:54:42.463Z,21.70
2023-09-11T02:57:16.663Z,21.70
2023-09-11T02:59:58.092Z,21.60
2023-09-11T03:02:35.739Z,22.30
2023-09-11T03:05:12.750Z,21.60
2023-09-11T03:07:48.441Z,21.50
2023-09-11T03:10:25.983Z,21.40
2023-09-11T03:12:58.944Z,21.40
2023-09-11T03:15:50.262Z,21.40
2023-09-11T03:18:20.784Z,22.30
2023-09-11T03:21:01.694Z,21.30
2023-09-11T03:23:38.886Z,21.40
2023-09-11T03:26:23.084Z,21.70
2023-09-11T03:29:02.547Z,21.50
2023-09-11T03:31:46.968Z,21.20
2023-09-11T03:37:15.773Z,21.30
2023-09-11T03:40:13.013Z,21.30
2023-09-11T03:42:53.124Z,21.20
2023-09-11T03:45:33.866Z,21.20
2023-09-11T03:48:06.477Z,21.20
2023-09-11T03:50:57.933Z,21.10
2023-09-11T03:53:41.984Z,22.70
2023-09-11T03:56:25.710Z,21.20
2023-09-11T03:59:08.704Z,21.10
2023-09-11T04:01:54.821Z,21.20
2023-09-11T04:04:35.223Z,21.10
2023-09-11T04:07:21.726Z,21.10
2023-09-11T04:09:57.264Z,21.10
2023-09-11T04:12:28.978Z,21.00
2023-09-11T04:15:00.923Z,20.10
2023-09-11T04:17:41.523Z,21.20
2023-09-11T04:20:12.407Z,20.90
2023-09-11T04:22:45.434Z,20.90
2023-09-11T04:25:26.222Z,20.90
2023-09-11T04:28:06.167Z,21.00
2023-09-11T04:30:44.960Z,20.90
2023-09-11T04:33:16.196Z,20.90
2023-09-11T04:35:47.305Z,21.30
2023-09-11T04:38:24.564Z,20.90
2023-09-11T04:41:04.026Z,20.90
2023-09-11T04:43:38.598Z,20.90
2023-09-11T04:46:12.426Z,21.00
2023-09-11T04:49:21.468Z,21.80
2023-09-11T04:51:53.781Z,21.00
2023-09-11T04:54:46.388Z,19.80
2023-09-11T04:57:27.150Z,20.90
2023-09-11T05:00:04.895Z,20.90
2023-09-11T05:03:02.597Z,21.00
2023-09-11T05:06:26.437Z,22.60
2023-09-11T05:09:11.507Z,21.00
2023-09-11T05:12:31.365Z,20.90
2023-09-11T05:15:27.177Z,21.10
2023-09-11T05:18:14.402Z,21.20
2023-09-11T05:20:43.157Z,21.30
2023-09-11T05:23:17.278Z,21.50
2023-09-11T05:25:47.760Z,21.80
2023-09-11T05:28:19.463Z,22.30
2023-09-11T05:30:48.456Z,23.00
2023-09-11T05:33:18.649Z,23.80
2023-09-11T05:35:53.578Z,24.60
2023-09-11T05:39:06.770Z,25.70
2023-09-11T05:45:10.402Z,25.90
2023-09-11T05:47:43.517Z,26.50
2023-09-11T05:50:16.072Z,26.70
2023-09-11T05:53:13.028Z,26.40
2023-09-11T05:56:03.608Z,26.30
2023-09-11T05:58:45.700Z,25.90
2023-09-11T06:01:31.821Z,26.70
2023-09-11T06:08:44.476Z,27.30
2023-09-11T06:11:45.594Z,28.00
2023-09-11T06:14:57.412Z,29.70
2023-09-11T06:17:48.502Z,29.80
2023-09-11T06:20:47.797Z,29.10
2023-09-11T06:23:19.621Z,28.70
2023-09-11T06:25:51.152Z,29.10
2023-09-11T06:33:24.919Z,31.40
2023-09-11T06:37:03.567Z,31.40
2023-09-11T06:43:06.786Z,33.00
2023-09-11T06:45:35.795Z,34.00
2023-09-11T06:48:04.342Z,34.60
2023-09-11T06:50:32.521Z,35.00
2023-09-11T06:53:00.407Z,35.30
2023-09-11T06:55:28.290Z,35.90
2023-09-11T06:57:57.845Z,36.50
2023-09-11T07:00:27.243Z,36.90
2023-09-11T07:02:55.394Z,37.40
2023-09-11T07:05:23.772Z,37.50
2023-09-11T07:07:51.713Z,37.50
2023-09-11T07:10:30.074Z,37.70
2023-09-11T07:12:58.978Z,38.10
2023-09-11T07:15:28.545Z,38.50
2023-09-11T07:17:56.743Z,38.90
2023-09-11T07:20:28.543Z,39.10
2023-09-11T07:22:56.643Z,39.30
2023-09-11T07:25:25.203Z,39.80
2023-09-11T07:27:56.385Z,40.20
2023-09-11T07:30:25.018Z,40.50
2023-09-11T07:32:55.414Z,40.60
2023-09-11T07:35:23.839Z,40.30
2023-09-11T07:37:51.786Z,40.40
2023-09-11T07:40:21.060Z,40.60
2023-09-11T07:42:48.998Z,40.30
2023-09-11T07:45:17.075Z,40.00
2023-09-11T07:47:45.199Z,40.10
2023-09-11T07:50:14.573Z,40.20
2023-09-11T07:52:42.664Z,40.20
2023-09-11T07:55:10.763Z,40.20
2023-09-11T07:57:41.455Z,40.30
2023-09-11T08:00:10.507Z,40.60
2023-09-11T08:02:39.197Z,40.90
2023-09-11T08:05:07.622Z,41.00
2023-09-11T08:07:36.940Z,41.20
2023-09-11T08:10:05.372Z,41.40
2023-09-11T08:12:35.784Z,41.60
2023-09-11T08:15:04.375Z,41.90
2023-09-11T08:17:33.183Z,42.00
2023-09-11T08:20:01.229Z,42.20
2023-09-11T08:22:29.247Z,42.60
2023-09-11T08:24:58.696Z,42.70
2023-09-11T08:27:26.555Z,43.10
2023-09-11T08:29:56.801Z,43.20
2023-09-11T08:32:24.944Z,43.30
2023-09-11T08:34:52.954Z,43.30
2023-09-11T08:37:20.969Z,43.60
2023-09-11T08:39:48.921Z,43.80
2023-09-11T08:42:18.388Z,44.00
2023-09-11T08:44:46.609Z,44.20
2023-09-11T08:47:16.582Z,44.20
2023-09-11T08:49:46.395Z,44.40
2023-09-11T08:52:16.158Z,44.60
2023-09-11T08:54:47.990Z,44.60
2023-09-11T08:57:22.510Z,44.80
2023-09-11T08:59:54.979Z,44.80
2023-09-11T09:02:25.545Z,44.80
2023-09-11T09:04:53.938Z,44.80
2023-09-11T09:07:22.861Z,45.00
2023-09-11T09:09:50.939Z,45.20
2023-09-11T09:12:20.469Z,45.50
2023-09-11T09:14:50.167Z,45.70
2023-09-11T09:17:18.299Z,45.90
2023-09-11T09:19:46.261Z,46.10
2023-09-11T09:22:14.903Z,46.00
2023-09-11T09:24:51.011Z,46.30
2023-09-11T09:27:21.345Z,46.20
2023-09-11T09:29:50.678Z,45.90
2023-09-11T09:32:19.078Z,45.80
2023-09-11T09:34:52.315Z,45.70
2023-09-11T09:37:21.974Z,45.40
2023-09-11T09:39:51.475Z,45.10
2023-09-11T09:42:21.326Z,45.20
2023-09-11T09:44:53.915Z,45.20
2023-09-11T09:47:23.628Z,45.40
2023-09-11T09:49:53.764Z,45.40
2023-09-11T09:52:22.919Z,45.00
2023-09-11T09:54:52.613Z,44.60
2023-09-11T09:57:23.592Z,44.60
2023-09-11T09:59:54.179Z,44.60
2023-09-11T10:02:28.346Z,44.40
2023-09-11T10:04:58.855Z,44.40
2023-09-11T10:07:39.732Z,44.50
2023-09-11T10:10:25.108Z,44.40
2023-09-11T10:13:14.229Z,44.20
2023-09-11T10:15:44.094Z,44.20
2023-09-11T10:18:13.585Z,44.10
2023-09-11T10:20:42.215Z,44.10
2023-09-11T10:23:10.939Z,44.00
2023-09-11T10:25:41.292Z,43.90
2023-09-11T10:28:15.851Z,43.90
2023-09-11T10:30:58.118Z,43.80
2023-09-11T10:33:36.912Z,43.50
2023-09-11T10:36:10.226Z,43.60
2023-09-11T10:38:39.062Z,43.50
2023-09-11T10:41:09.120Z,43.50
2023-09-11T10:43:40.060Z,43.50
2023-09-11T10:46:19.765Z,43.40
2023-09-11T10:48:48.110Z,43.20
2023-09-11T10:51:17.654Z,43.10
2023-09-11T10:53:49.579Z,42.90
2023-09-11T10:56:18.091Z,42.80
2023-09-11T10:58:47.460Z,42.90
2023-09-11T11:01:16.229Z,42.80
2023-09-11T11:03:44.423Z,42.90
2023-09-11T11:06:18.817Z,42.80
2023-09-11T11:08:48.635Z,42.50
2023-09-11T11:11:22.551Z,42.40
2023-09-11T11:14:24.322Z,42.50
2023-09-11T11:17:02.558Z,42.30
2023-09-11T11:19:32.402Z,42.20
2023-09-11T11:22:02.181Z,42.30
2023-09-11T11:24:35.923Z,42.20
2023-09-11T11:27:05.496Z,42.20
2023-09-11T11:29:34.422Z,42.20
2023-09-11T11:32:08.386Z,41.60
2023-09-11T11:34:39.092Z,40.70
2023-09-11T11:37:07.473Z,39.50
2023-09-11T11:39:39.009Z,38.90
2023-09-11T11:42:08.656Z,38.40
2023-09-11T11:44:38.125Z,37.90
2023-09-11T11:47:08.479Z,37.50
2023-09-11T11:49:37.169Z,37.10
2023-09-11T11:52:06.814Z,36.80
2023-09-11T11:54:35.971Z,36.50
2023-09-11T11:57:05.872Z,36.30
2023-09-11T11:59:35.697Z,36.10
2023-09-11T12:02:04.532Z,36.10
2023-09-11T12:07:07.196Z,36.20
2023-09-11T12:09:35.153Z,36.30
2023-09-11T12:12:07.112Z,36.20
2023-09-11T12:14:37.404Z,36.20
2023-09-11T12:17:10.037Z,36.20
2023-09-11T12:19:39.369Z,36.10
2023-09-11T12:22:07.716Z,35.90
2023-09-11T12:24:35.650Z,35.80
2023-09-11T12:27:06.248Z,35.90
2023-09-11T12:29:34.967Z,35.90
2023-09-11T12:32:03.252Z,35.90
2023-09-11T12:34:45.531Z,35.70
2023-09-11T12:37:13.609Z,35.20
2023-09-11T12:39:41.945Z,34.80
2023-09-11T12:42:12.642Z,34.70
2023-09-11T12:44:40.768Z,34.70
2023-09-11T12:47:08.961Z,34.80
2023-09-11T12:49:37.343Z,34.90
2023-09-11T12:52:07.736Z,35.00
2023-09-11T12:54:36.838Z,34.90
2023-09-11T12:57:07.003Z,34.60
2023-09-11T12:59:35.367Z,34.40
2023-09-11T13:02:04.481Z,34.40
2023-09-11T13:04:34.159Z,34.40
2023-09-11T13:07:02.058Z,34.40
2023-09-11T13:09:35.003Z,34.30
2023-09-11T13:12:02.951Z,34.20
2023-09-11T13:14:30.924Z,34.20
2023-09-11T13:16:59.117Z,34.20
2023-09-11T13:19:27.151Z,34.20
2023-09-11T13:21:54.082Z,34.10
2023-09-11T13:24:22.085Z,34.00
2023-09-11T13:26:51.641Z,34.00
2023-09-11T13:29:19.566Z,33.90
2023-09-11T13:31:47.504Z,33.70
2023-09-11T13:34:15.556Z,33.70
2023-09-11T13:36:43.555Z,33.70
2023-09-11T13:39:13.047Z,33.40
2023-09-11T13:41:41.230Z,33.20
2023-09-11T13:44:11.691Z,33.00
2023-09-11T13:46:39.550Z,33.00
2023-09-11T13:49:08.514Z,33.00
2023-09-11T13:51:36.454Z,33.00
2023-09-11T13:54:04.618Z,33.10
2023-09-11T13:56:32.596Z,33.20
2023-09-11T13:59:00.474Z,33.30
2023-09-11T14:01:29.698Z,33.40
2023-09-11T14:03:57.796Z,33.50
2023-09-11T14:06:26.905Z,33.50
2023-09-11T14:08:54.859Z,33.50
2023-09-11T14:11:22.850Z,33.50
2023-09-11T14:13:50.731Z,33.40
2023-09-11T14:16:19.017Z,33.40
2023-09-11T14:18:48.365Z,33.30
2023-09-11T14:21:16.374Z,33.20
2023-09-11T14:23:44.440Z,33.20
2023-09-11T14:26:12.454Z,33.20
2023-09-11T14:28:40.711Z,33.20
2023-09-11T14:31:08.954Z,33.20
2023-09-11T14:33:36.910Z,33.20
2023-09-11T14:36:06.583Z,33.20
2023-09-11T14:38:34.503Z,33.20
2023-09-11T14:41:02.512Z,33.20
2023-09-11T14:43:30.468Z,33.20
2023-09-11T14:45:58.515Z,33.20
2023-09-11T14:48:26.672Z,33.20
2023-09-11T14:50:54.761Z,33.00
2023-09-11T14:53:38.567Z,33.00
2023-09-11T14:56:06.495Z,32.60
2023-09-11T14:58:34.397Z,32.80
2023-09-11T15:01:02.778Z,32.70
2023-09-11T15:03:30.850Z,32.70
2023-09-11T15:05:59.271Z,32.60
2023-09-11T15:08:28.613Z,32.50
2023-09-11T15:10:59.809Z,32.40
2023-09-11T15:13:28.577Z,32.30
2023-09-11T15:15:56.995Z,32.30
2023-09-11T15:18:25.984Z,32.20
2023-09-11T15:20:54.348Z,32.20
2023-09-11T15:23:22.654Z,32.20
2023-09-11T15:25:51.924Z,32.10
2023-09-11T15:28:19.864Z,32.10
2023-09-11T15:30:52.998Z,32.00
2023-09-11T15:33:21.494Z,32.00
2023-09-11T15:36:04.141Z,32.00
2023-09-11T15:38:33.245Z,32.00
2023-09-11T15:41:07.528Z,32.00
2023-09-11T15:43:37.851Z,31.90
2023-09-11T15:46:07.006Z,31.90
2023-09-11T15:48:37.976Z,31.90
2023-09-11T15:51:06.534Z,31.80
2023-09-11T15:53:35.828Z,31.80
2023-09-11T15:56:06.416Z,31.70
2023-09-11T15:58:34.498Z,31.70
2023-09-11T16:01:02.509Z,31.30
2023-09-11T16:03:30.515Z,31.60
2023-09-11T16:05:58.509Z,31.50
2023-09-11T16:08:26.457Z,31.50
2023-09-11T16:10:54.466Z,31.40
2023-09-11T16:13:24.258Z,31.30
2023-09-11T16:15:52.329Z,31.30
2023-09-11T16:18:20.338Z,31.20
2023-09-11T16:20:48.331Z,31.10
2023-09-11T16:23:16.328Z,31.00
2023-09-11T16:25:44.325Z,31.00
2023-09-11T16:28:12.942Z,31.00
2023-09-11T16:30:42.200Z,30.90
2023-09-11T16:33:10.213Z,30.90
2023-09-11T16:35:38.155Z,30.80
2023-09-11T16:38:06.065Z,30.80
2023-09-11T16:40:35.433Z,30.80
2023-09-11T16:43:03.548Z,30.70
2023-09-11T16:45:34.520Z,30.60
2023-09-11T16:48:04.435Z,30.60
2023-09-11T16:50:32.729Z,30.50
2023-09-11T16:53:00.798Z,30.50
2023-09-11T16:55:28.760Z,30.50
2023-09-11T16:57:56.664Z,30.40
2023-09-11T17:00:26.461Z,30.40
2023-09-11T17:02:54.611Z,30.30
2023-09-11T17:05:23.888Z,30.20
2023-09-11T17:07:51.803Z,30.20
2023-09-11T17:10:19.776Z,30.10
2023-09-11T17:12:50.122Z,30.00
2023-09-11T17:15:18.278Z,29.90
2023-09-11T17:17:46.618Z,29.90
2023-09-11T17:20:17.259Z,29.80
2023-09-11T17:22:46.816Z,29.70
2023-09-11T17:25:15.347Z,29.60
2023-09-11T17:27:43.468Z,29.50
2023-09-11T17:30:12.691Z,29.50
2023-09-11T17:32:40.842Z,29.40
2023-09-11T17:35:09.494Z,29.30
2023-09-11T17:37:37.534Z,29.20
2023-09-11T17:40:14.529Z,29.20
2023-09-11T17:42:42.430Z,29.20
2023-09-11T17:45:11.623Z,29.10
2023-09-11T17:47:41.153Z,29.10
2023-09-11T17:50:09.808Z,29.00
2023-09-11T17:52:37.792Z,28.90
2023-09-11T17:55:08.037Z,28.80
2023-09-11T17:57:35.992Z,28.70
2023-09-11T18:00:05.308Z,28.60
2023-09-11T18:02:33.388Z,28.60
2023-09-11T18:05:01.424Z,28.50
2023-09-11T18:07:31.610Z,28.40
2023-09-11T18:09:59.665Z,28.40
2023-09-11T18:12:31.029Z,28.30
2023-09-11T18:14:59.389Z,28.30
2023-09-11T18:17:28.349Z,28.30
2023-09-11T18:19:56.800Z,28.20
2023-09-11T18:22:24.732Z,28.20
2023-09-11T18:24:53.014Z,28.10
2023-09-11T18:27:20.953Z,28.10
2023-09-11T18:29:50.299Z,28.10
2023-09-11T18:32:19.232Z,28.00
2023-09-11T18:34:47.175Z,28.00
2023-09-11T18:37:15.628Z,27.90
2023-09-11T18:39:43.667Z,27.90
2023-09-11T18:42:12.158Z,27.80
2023-09-11T18:44:40.268Z,27.70
2023-09-11T18:47:09.603Z,27.60
2023-09-11T18:49:37.530Z,27.60
2023-09-11T18:52:06.204Z,27.60
2023-09-11T18:54:34.427Z,27.50
2023-09-11T18:57:02.791Z,27.50
2023-09-11T18:59:32.370Z,27.40
2023-09-11T19:02:03.419Z,27.40
2023-09-11T19:04:33.500Z,27.30
2023-09-11T19:07:02.047Z,27.30
2023-09-11T19:09:31.237Z,27.20
2023-09-11T19:11:59.260Z,27.20
2023-09-11T19:14:27.260Z,27.10
2023-09-11T19:16:55.162Z,27.10
2023-09-11T19:19:23.056Z,27.10
2023-09-11T19:21:52.366Z,27.00
2023-09-11T19:24:20.281Z,27.00
2023-09-11T19:26:48.272Z,27.00
2023-09-11T19:29:17.144Z,26.90
2023-09-11T19:31:45.228Z,26.90
2023-09-11T19:34:13.246Z,26.80
2023-09-11T19:36:41.399Z,26.80
2023-09-11T19:39:12.570Z,26.80
2023-09-11T19:41:40.786Z,26.70
2023-09-11T19:44:08.854Z,26.60
2023-09-11T19:46:37.068Z,26.60
2023-09-11T19:49:04.979Z,26.60
2023-09-11T19:51:32.909Z,26.50
2023-09-11T19:54:01.046Z,26.40
2023-09-11T19:56:30.598Z,26.40
2023-09-11T19:59:00.021Z,26.40
2023-09-11T20:01:30.768Z,26.30
2023-09-11T20:03:59.323Z,26.30
2023-09-11T20:06:27.655Z,26.30
2023-09-11T20:08:55.607Z,26.30
2023-09-11T20:11:23.622Z,26.20
2023-09-11T20:13:52.871Z,26.20
2023-09-11T20:16:20.930Z,26.10
2023-09-11T20:18:48.931Z,26.10
2023-09-11T20:21:16.886Z,26.00
2023-09-11T20:23:44.804Z,25.90
2023-09-11T20:26:12.650Z,25.90
2023-09-11T20:28:40.949Z,25.90
2023-09-11T20:31:16.508Z,25.80
2023-09-11T20:33:45.834Z,25.80
2023-09-11T20:36:14.008Z,25.70
2023-09-11T20:38:42.388Z,25.70
2023-09-11T20:41:10.450Z,25.60
2023-09-11T20:43:45.480Z,25.60
2023-09-11T20:46:16.534Z,25.50
2023-09-11T20:48:44.894Z,25.40
2023-09-11T20:51:16.295Z,25.40
2023-09-11T20:53:44.347Z,25.40
2023-09-11T20:56:12.247Z,25.30
2023-09-11T20:58:40.497Z,25.30
2023-09-11T21:01:10.940Z,25.20
2023-09-11T21:03:40.616Z,25.10
2023-09-11T21:06:10.235Z,25.10
2023-09-11T21:08:38.215Z,25.00
2023-09-11T21:11:06.097Z,25.00
2023-09-11T21:13:33.991Z,25.00
2023-09-11T21:16:02.002Z,25.00
2023-09-11T21:18:30.479Z,24.90
2023-09-11T21:20:59.819Z,24.80
2023-09-11T21:23:28.388Z,24.80
2023-09-11T21:25:57.297Z,24.70
2023-09-11T21:28:25.735Z,24.70
2023-09-11T21:30:54.529Z,24.60
2023-09-11T21:33:23.145Z,24.60
2023-09-11T21:35:51.264Z,24.60
2023-09-11T21:38:20.571Z,24.50
2023-09-11T21:40:48.469Z,24.40
2023-09-11T21:43:16.411Z,24.40
2023-09-11T21:45:44.893Z,24.20
2023-09-11T21:48:13.326Z,24.20
2023-09-11T21:50:41.355Z,24.20
2023-09-11T21:53:09.366Z,24.10
2023-09-11T21:55:38.584Z,24.10
2023-09-11T21:58:06.485Z,24.00
2023-09-11T22:00:34.478Z,23.90
2023-09-11T22:03:02.853Z,23.90
2023-09-11T22:05:32.130Z,23.90
2023-09-11T22:08:00.097Z,23.80
2023-09-11T22:10:27.982Z,23.70
2023-09-11T22:12:57.196Z,23.60
2023-09-11T22:15:25.130Z,23.60
2023-09-11T22:17:53.140Z,23.60
2023-09-11T22:20:21.168Z,23.60
2023-09-11T22:22:49.073Z,23.50
2023-09-11T22:25:17.026Z,23.40
2023-09-11T22:27:45.151Z,23.30
2023-09-11T22:30:15.265Z,23.30
2023-09-11T22:32:55.370Z,23.20
2023-09-11T22:35:24.098Z,23.10
2023-09-11T22:37:52.811Z,23.10
2023-09-11T22:40:20.945Z,23.10
2023-09-11T22:42:48.852Z,23.00
2023-09-11T22:45:18.295Z,22.90
2023-09-11T22:47:48.861Z,22.80
2023-09-11T22:50:17.024Z,22.80
2023-09-11T22:52:44.889Z,22.70
2023-09-11T22:55:12.759Z,22.60
2023-09-11T22:57:40.627Z,22.60
2023-09-11T23:00:09.572Z,22.50
2023-09-11T23:02:39.158Z,22.50
2023-09-11T23:05:07.498Z,22.50
2023-09-11T23:07:35.372Z,22.50
2023-09-11T23:10:03.636Z,22.40
2023-09-11T23:12:31.579Z,22.30
2023-09-11T23:14:59.562Z,22.30
2023-09-11T23:17:27.546Z,22.20
2023-09-11T23:19:56.842Z,22.30
2023-09-11T23:22:24.772Z,22.30
2023-09-11T23:24:52.940Z,22.30
2023-09-11T23:27:20.920Z,22.20
2023-09-11T23:29:48.910Z,22.20
2023-09-11T23:32:16.803Z,22.20
2023-09-11T23:34:44.694Z,22.20
2023-09-11T23:37:13.870Z,22.20
2023-09-11T23:39:41.775Z,22.20
2023-09-11T23:42:11.498Z,22.20
2023-09-11T23:44:39.405Z,22.20
2023-09-11T23:47:07.881Z,22.20
2023-09-11T23:49:35.801Z,22.20
2023-09-11T23:52:19.381Z,22.10
2023-09-11T23:54:52.974Z,22.10
2023-09-11T23:57:20.910Z,22.00
2023-09-11T23:59:48.804Z,22.00
